sensor_id;sensor_type;location;lat;lon;timestamp;P1;P2;P0
76661;PMS5003;65579;45.534;6.212;2023-03-31T00:01:48;23;22;
76661;PMS5003;65579;45.534;6.212;2023-03-31T00:04:14;16;16;
76661;PMS5003;65579;45.534;6.212;2023-03-31T00:06:40;21;19;
76661;PMS5003;65579;45.534;6.212;2023-03-31T00:09:05;19;19;
76661;PMS5003;65579;45.534;6.212;2023-03-31T00:11:30;20;18;
76661;PMS5003;65579;45.534;6.212;2023-03-31T00:13:56;19;16;
76661;PMS5003;65579;45.534;6.212;2023-03-31T00:16:21;22;22;
76661;PMS5003;65579;45.534;6.212;2023-03-31T00:18:47;31;25;
76661;PMS5003;65579;45.534;6.212;2023-03-31T00:21:13;20;20;
76661;PMS5003;65579;45.534;6.212;2023-03-31T00:23:38;20;20;
76661;PMS5003;65579;45.534;6.212;2023-03-31T00:26:04;26;25;
76661;PMS5003;65579;45.534;6.212;2023-03-31T00:28:29;23;19;
76661;PMS5003;65579;45.534;6.212;2023-03-31T00:30:58;25;22;
76661;PMS5003;65579;45.534;6.212;2023-03-31T00:33:20;34;31;
76661;PMS5003;65579;45.534;6.212;2023-03-31T00:35:45;24;23;
76661;PMS5003;65579;45.534;6.212;2023-03-31T00:38:10;20;20;
76661;PMS5003;65579;45.534;6.212;2023-03-31T00:40:35;21;21;
76661;PMS5003;65579;45.534;6.212;2023-03-31T00:43:01;20;19;
76661;PMS5003;65579;45.534;6.212;2023-03-31T00:45:27;25;23;
76661;PMS5003;65579;45.534;6.212;2023-03-31T00:47:53;22;22;
76661;PMS5003;65579;45.534;6.212;2023-03-31T00:50:19;19;19;
76661;PMS5003;65579;45.534;6.212;2023-03-31T00:52:43;22;22;
76661;PMS5003;65579;45.534;6.212;2023-03-31T00:55:10;22;22;
76661;PMS5003;65579;45.534;6.212;2023-03-31T00:57:36;25;24;
76661;PMS5003;65579;45.534;6.212;2023-03-31T01:00:00;20;20;
76661;PMS5003;65579;45.534;6.212;2023-03-31T01:02:26;17;17;
76661;PMS5003;65579;45.534;6.212;2023-03-31T01:04:51;22;20;
76661;PMS5003;65579;45.534;6.212;2023-03-31T01:07:17;22;22;
76661;PMS5003;65579;45.534;6.212;2023-03-31T01:09:41;25;22;
76661;PMS5003;65579;45.534;6.212;2023-03-31T01:12:07;23;23;
76661;PMS5003;65579;45.534;6.212;2023-03-31T01:14:33;20;19;
76661;PMS5003;65579;45.534;6.212;2023-03-31T01:16:58;21;19;
76661;PMS5003;65579;45.534;6.212;2023-03-31T01:19:27;17;17;
76661;PMS5003;65579;45.534;6.212;2023-03-31T01:21:59;22;21;
76661;PMS5003;65579;45.534;6.212;2023-03-31T01:29:08;23;21;
76661;PMS5003;65579;45.534;6.212;2023-03-31T01:31:36;20;19;
76661;PMS5003;65579;45.534;6.212;2023-03-31T01:33:59;21;20;
76661;PMS5003;65579;45.534;6.212;2023-03-31T01:36:29;25;24;
76661;PMS5003;65579;45.534;6.212;2023-03-31T01:41:17;22;21;
76661;PMS5003;65579;45.534;6.212;2023-03-31T01:43:40;22;22;
76661;PMS5003;65579;45.534;6.212;2023-03-31T01:46:06;26;26;
76661;PMS5003;65579;45.534;6.212;2023-03-31T01:48:33;19;19;
76661;PMS5003;65579;45.534;6.212;2023-03-31T01:50:55;20;19;
76661;PMS5003;65579;45.534;6.212;2023-03-31T01:53:21;23;20;
76661;PMS5003;65579;45.534;6.212;2023-03-31T01:55:47;19;19;
76661;PMS5003;65579;45.534;6.212;2023-03-31T01:58:12;23;22;
76661;PMS5003;65579;45.534;6.212;2023-03-31T02:00:37;26;26;
76661;PMS5003;65579;45.534;6.212;2023-03-31T02:03:03;21;21;
76661;PMS5003;65579;45.534;6.212;2023-03-31T02:05:29;19;19;
76661;PMS5003;65579;45.534;6.212;2023-03-31T02:07:53;25;21;
76661;PMS5003;65579;45.534;6.212;2023-03-31T02:10:18;23;21;
76661;PMS5003;65579;45.534;6.212;2023-03-31T02:12:43;23;23;
76661;PMS5003;65579;45.534;6.212;2023-03-31T02:15:09;23;20;
76661;PMS5003;65579;45.534;6.212;2023-03-31T02:17:33;21;20;
76661;PMS5003;65579;45.534;6.212;2023-03-31T02:20:02;25;22;
76661;PMS5003;65579;45.534;6.212;2023-03-31T02:22:28;26;25;
76661;PMS5003;65579;45.534;6.212;2023-03-31T02:24:50;22;20;
76661;PMS5003;65579;45.534;6.212;2023-03-31T02:27:18;27;24;
76661;PMS5003;65579;45.534;6.212;2023-03-31T02:29:41;27;27;
76661;PMS5003;65579;45.534;6.212;2023-03-31T02:32:08;18;18;
76661;PMS5003;65579;45.534;6.212;2023-03-31T02:34:32;27;25;
76661;PMS5003;65579;45.534;6.212;2023-03-31T02:36:57;25;24;
76661;PMS5003;65579;45.534;6.212;2023-03-31T02:39:23;20;19;
76661;PMS5003;65579;45.534;6.212;2023-03-31T02:41:47;24;24;
76661;PMS5003;65579;45.534;6.212;2023-03-31T02:44:13;26;24;
76661;PMS5003;65579;45.534;6.212;2023-03-31T02:46:38;27;27;
76661;PMS5003;65579;45.534;6.212;2023-03-31T02:49:04;22;20;
76661;PMS5003;65579;45.534;6.212;2023-03-31T02:51:34;23;22;
76661;PMS5003;65579;45.534;6.212;2023-03-31T02:53:59;21;21;
76661;PMS5003;65579;45.534;6.212;2023-03-31T02:56:25;21;21;
76661;PMS5003;65579;45.534;6.212;2023-03-31T02:58:49;23;22;
76661;PMS5003;65579;45.534;6.212;2023-03-31T03:01:16;20;20;
76661;PMS5003;65579;45.534;6.212;2023-03-31T03:03:40;22;22;
76661;PMS5003;65579;45.534;6.212;2023-03-31T03:06:04;24;24;
76661;PMS5003;65579;45.534;6.212;2023-03-31T03:08:30;22;22;
76661;PMS5003;65579;45.534;6.212;2023-03-31T03:10:57;21;21;
76661;PMS5003;65579;45.534;6.212;2023-03-31T03:13:20;27;25;
76661;PMS5003;65579;45.534;6.212;2023-03-31T03:15:46;25;24;
76661;PMS5003;65579;45.534;6.212;2023-03-31T03:18:09;19;18;
76661;PMS5003;65579;45.534;6.212;2023-03-31T03:20:35;19;19;
76661;PMS5003;65579;45.534;6.212;2023-03-31T03:23:01;19;18;
76661;PMS5003;65579;45.534;6.212;2023-03-31T03:25:26;22;22;
76661;PMS5003;65579;45.534;6.212;2023-03-31T03:27:51;19;17;
76661;PMS5003;65579;45.534;6.212;2023-03-31T03:30:17;20;18;
76661;PMS5003;65579;45.534;6.212;2023-03-31T03:32:43;18;17;
76661;PMS5003;65579;45.534;6.212;2023-03-31T03:35:08;18;18;
76661;PMS5003;65579;45.534;6.212;2023-03-31T03:37:33;21;21;
76661;PMS5003;65579;45.534;6.212;2023-03-31T03:39:58;25;22;
76661;PMS5003;65579;45.534;6.212;2023-03-31T03:42:23;25;24;
76661;PMS5003;65579;45.534;6.212;2023-03-31T03:44:49;18;18;
76661;PMS5003;65579;45.534;6.212;2023-03-31T03:47:15;22;21;
76661;PMS5003;65579;45.534;6.212;2023-03-31T03:49:40;17;17;
76661;PMS5003;65579;45.534;6.212;2023-03-31T03:52:05;22;22;
76661;PMS5003;65579;45.534;6.212;2023-03-31T03:54:31;21;19;
76661;PMS5003;65579;45.534;6.212;2023-03-31T03:56:56;23;23;
76661;PMS5003;65579;45.534;6.212;2023-03-31T03:59:21;20;19;
76661;PMS5003;65579;45.534;6.212;2023-03-31T04:01:47;27;23;
76661;PMS5003;65579;45.534;6.212;2023-03-31T04:04:12;20;20;
76661;PMS5003;65579;45.534;6.212;2023-03-31T04:06:37;20;19;
76661;PMS5003;65579;45.534;6.212;2023-03-31T04:09:02;19;17;
76661;PMS5003;65579;45.534;6.212;2023-03-31T04:11:28;25;23;
76661;PMS5003;65579;45.534;6.212;2023-03-31T04:13:53;24;24;
76661;PMS5003;65579;45.534;6.212;2023-03-31T04:16:18;23;22;
76661;PMS5003;65579;45.534;6.212;2023-03-31T04:18:44;21;21;
76661;PMS5003;65579;45.534;6.212;2023-03-31T04:21:09;19;18;
76661;PMS5003;65579;45.534;6.212;2023-03-31T04:23:35;17;16;
76661;PMS5003;65579;45.534;6.212;2023-03-31T04:26:00;22;18;
76661;PMS5003;65579;45.534;6.212;2023-03-31T04:28:25;17;16;
76661;PMS5003;65579;45.534;6.212;2023-03-31T04:30:51;18;16;
76661;PMS5003;65579;45.534;6.212;2023-03-31T04:33:16;22;19;
76661;PMS5003;65579;45.534;6.212;2023-03-31T04:35:42;23;23;
76661;PMS5003;65579;45.534;6.212;2023-03-31T04:38:07;20;19;
76661;PMS5003;65579;45.534;6.212;2023-03-31T04:40:32;17;17;
76661;PMS5003;65579;45.534;6.212;2023-03-31T04:42:58;23;21;
76661;PMS5003;65579;45.534;6.212;2023-03-31T04:45:23;22;20;
76661;PMS5003;65579;45.534;6.212;2023-03-31T04:47:48;18;18;
76661;PMS5003;65579;45.534;6.212;2023-03-31T04:50:14;22;20;
76661;PMS5003;65579;45.534;6.212;2023-03-31T04:52:39;17;16;
76661;PMS5003;65579;45.534;6.212;2023-03-31T04:55:04;18;18;
76661;PMS5003;65579;45.534;6.212;2023-03-31T04:57:29;17;16;
76661;PMS5003;65579;45.534;6.212;2023-03-31T04:59:54;22;22;
76661;PMS5003;65579;45.534;6.212;2023-03-31T05:02:20;24;24;
76661;PMS5003;65579;45.534;6.212;2023-03-31T05:04:45;18;17;
76661;PMS5003;65579;45.534;6.212;2023-03-31T05:07:11;18;18;
76661;PMS5003;65579;45.534;6.212;2023-03-31T05:09:36;16;15;
76661;PMS5003;65579;45.534;6.212;2023-03-31T05:12:01;19;16;
76661;PMS5003;65579;45.534;6.212;2023-03-31T05:14:26;21;21;
76661;PMS5003;65579;45.534;6.212;2023-03-31T05:16:53;21;20;
76661;PMS5003;65579;45.534;6.212;2023-03-31T05:19:17;26;25;
76661;PMS5003;65579;45.534;6.212;2023-03-31T05:21:43;23;22;
76661;PMS5003;65579;45.534;6.212;2023-03-31T05:24:09;22;22;
76661;PMS5003;65579;45.534;6.212;2023-03-31T05:26:35;19;19;
76661;PMS5003;65579;45.534;6.212;2023-03-31T05:29:00;20;19;
76661;PMS5003;65579;45.534;6.212;2023-03-31T05:31:26;18;17;
76661;PMS5003;65579;45.534;6.212;2023-03-31T05:33:51;23;20;
76661;PMS5003;65579;45.534;6.212;2023-03-31T05:36:16;25;22;
76661;PMS5003;65579;45.534;6.212;2023-03-31T05:38:42;27;23;
76661;PMS5003;65579;45.534;6.212;2023-03-31T05:41:07;25;24;
76661;PMS5003;65579;45.534;6.212;2023-03-31T05:43:32;26;24;
76661;PMS5003;65579;45.534;6.212;2023-03-31T05:45:58;22;20;
76661;PMS5003;65579;45.534;6.212;2023-03-31T05:48:23;24;23;
76661;PMS5003;65579;45.534;6.212;2023-03-31T05:50:48;32;30;
76661;PMS5003;65579;45.534;6.212;2023-03-31T05:53:13;23;20;
76661;PMS5003;65579;45.534;6.212;2023-03-31T05:55:38;25;20;
76661;PMS5003;65579;45.534;6.212;2023-03-31T05:58:04;22;22;
76661;PMS5003;65579;45.534;6.212;2023-03-31T06:00:30;19;18;
76661;PMS5003;65579;45.534;6.212;2023-03-31T06:02:55;20;20;
76661;PMS5003;65579;45.534;6.212;2023-03-31T06:05:21;19;18;
76661;PMS5003;65579;45.534;6.212;2023-03-31T06:07:46;43;43;
76661;PMS5003;65579;45.534;6.212;2023-03-31T06:10:12;22;20;
76661;PMS5003;65579;45.534;6.212;2023-03-31T06:12:37;23;22;
76661;PMS5003;65579;45.534;6.212;2023-03-31T06:15:03;25;22;
76661;PMS5003;65579;45.534;6.212;2023-03-31T06:17:29;18;17;
76661;PMS5003;65579;45.534;6.212;2023-03-31T06:22:20;24;20;
76661;PMS5003;65579;45.534;6.212;2023-03-31T06:24:46;24;20;
76661;PMS5003;65579;45.534;6.212;2023-03-31T06:27:11;19;19;
76661;PMS5003;65579;45.534;6.212;2023-03-31T06:29:36;20;19;
76661;PMS5003;65579;45.534;6.212;2023-03-31T06:32:02;25;25;
76661;PMS5003;65579;45.534;6.212;2023-03-31T06:34:29;22;22;
76661;PMS5003;65579;45.534;6.212;2023-03-31T06:36:54;24;20;
76661;PMS5003;65579;45.534;6.212;2023-03-31T06:39:19;23;20;
76661;PMS5003;65579;45.534;6.212;2023-03-31T06:41:45;20;18;
76661;PMS5003;65579;45.534;6.212;2023-03-31T06:44:11;20;17;
76661;PMS5003;65579;45.534;6.212;2023-03-31T06:46:36;20;17;
76661;PMS5003;65579;45.534;6.212;2023-03-31T06:49:01;21;18;
76661;PMS5003;65579;45.534;6.212;2023-03-31T06:51:27;21;20;
76661;PMS5003;65579;45.534;6.212;2023-03-31T06:53:52;21;20;
76661;PMS5003;65579;45.534;6.212;2023-03-31T06:56:18;15;15;
76661;PMS5003;65579;45.534;6.212;2023-03-31T06:58:43;22;19;
76661;PMS5003;65579;45.534;6.212;2023-03-31T07:01:08;21;19;
76661;PMS5003;65579;45.534;6.212;2023-03-31T07:03:34;20;18;
76661;PMS5003;65579;45.534;6.212;2023-03-31T07:05:59;20;18;
76661;PMS5003;65579;45.534;6.212;2023-03-31T07:08:25;22;22;
76661;PMS5003;65579;45.534;6.212;2023-03-31T07:10:52;24;21;
76661;PMS5003;65579;45.534;6.212;2023-03-31T07:13:16;21;21;
76661;PMS5003;65579;45.534;6.212;2023-03-31T07:15:42;21;19;
76661;PMS5003;65579;45.534;6.212;2023-03-31T07:18:07;25;24;
76661;PMS5003;65579;45.534;6.212;2023-03-31T07:20:33;17;15;
76661;PMS5003;65579;45.534;6.212;2023-03-31T07:22:59;15;13;
76661;PMS5003;65579;45.534;6.212;2023-03-31T07:25:25;17;17;
76661;PMS5003;65579;45.534;6.212;2023-03-31T07:27:50;22;21;
76661;PMS5003;65579;45.534;6.212;2023-03-31T07:30:17;18;18;
76661;PMS5003;65579;45.534;6.212;2023-03-31T07:32:41;22;22;
76661;PMS5003;65579;45.534;6.212;2023-03-31T07:35:07;14;14;
76661;PMS5003;65579;45.534;6.212;2023-03-31T07:37:33;20;20;
76661;PMS5003;65579;45.534;6.212;2023-03-31T07:39:59;25;25;
76661;PMS5003;65579;45.534;6.212;2023-03-31T07:42:25;21;21;
76661;PMS5003;65579;45.534;6.212;2023-03-31T07:44:50;24;24;
76661;PMS5003;65579;45.534;6.212;2023-03-31T07:47:15;27;26;
76661;PMS5003;65579;45.534;6.212;2023-03-31T07:49:41;28;23;
76661;PMS5003;65579;45.534;6.212;2023-03-31T07:52:06;24;21;
76661;PMS5003;65579;45.534;6.212;2023-03-31T07:54:31;28;28;
76661;PMS5003;65579;45.534;6.212;2023-03-31T07:56:57;32;29;
76661;PMS5003;65579;45.534;6.212;2023-03-31T07:59:22;28;24;
76661;PMS5003;65579;45.534;6.212;2023-03-31T08:01:48;23;21;
76661;PMS5003;65579;45.534;6.212;2023-03-31T08:04:13;27;26;
76661;PMS5003;65579;45.534;6.212;2023-03-31T08:06:39;25;22;
76661;PMS5003;65579;45.534;6.212;2023-03-31T08:09:04;20;20;
76661;PMS5003;65579;45.534;6.212;2023-03-31T08:11:29;11;11;
76661;PMS5003;65579;45.534;6.212;2023-03-31T08:13:55;15;15;
76661;PMS5003;65579;45.534;6.212;2023-03-31T08:16:20;30;25;
76661;PMS5003;65579;45.534;6.212;2023-03-31T08:18:45;38;31;
76661;PMS5003;65579;45.534;6.212;2023-03-31T08:21:10;23;22;
76661;PMS5003;65579;45.534;6.212;2023-03-31T08:23:36;19;19;
76661;PMS5003;65579;45.534;6.212;2023-03-31T08:26:08;21;20;
76661;PMS5003;65579;45.534;6.212;2023-03-31T08:28:26;21;20;
76661;PMS5003;65579;45.534;6.212;2023-03-31T08:30:52;24;22;
76661;PMS5003;65579;45.534;6.212;2023-03-31T08:33:17;22;22;
76661;PMS5003;65579;45.534;6.212;2023-03-31T08:35:43;19;18;
76661;PMS5003;65579;45.534;6.212;2023-03-31T08:40:34;20;18;
76661;PMS5003;65579;45.534;6.212;2023-03-31T08:43:01;22;22;
76661;PMS5003;65579;45.534;6.212;2023-03-31T08:45:26;18;17;
76661;PMS5003;65579;45.534;6.212;2023-03-31T08:47:52;22;20;
76661;PMS5003;65579;45.534;6.212;2023-03-31T08:50:19;24;22;
76661;PMS5003;65579;45.534;6.212;2023-03-31T08:52:43;35;33;
76661;PMS5003;65579;45.534;6.212;2023-03-31T08:55:10;30;28;
76661;PMS5003;65579;45.534;6.212;2023-03-31T08:57:34;33;28;
76661;PMS5003;65579;45.534;6.212;2023-03-31T08:59:59;24;24;
76661;PMS5003;65579;45.534;6.212;2023-03-31T09:02:26;27;25;
76661;PMS5003;65579;45.534;6.212;2023-03-31T09:04:54;23;23;
76661;PMS5003;65579;45.534;6.212;2023-03-31T09:07:16;29;28;
76661;PMS5003;65579;45.534;6.212;2023-03-31T09:09:43;29;27;
76661;PMS5003;65579;45.534;6.212;2023-03-31T09:12:06;26;25;
76661;PMS5003;65579;45.534;6.212;2023-03-31T09:14:32;22;22;
76661;PMS5003;65579;45.534;6.212;2023-03-31T09:16:58;22;21;
76661;PMS5003;65579;45.534;6.212;2023-03-31T09:19:24;27;21;
76661;PMS5003;65579;45.534;6.212;2023-03-31T09:21:48;30;27;
76661;PMS5003;65579;45.534;6.212;2023-03-31T09:24:13;32;30;
76661;PMS5003;65579;45.534;6.212;2023-03-31T09:26:39;27;26;
76661;PMS5003;65579;45.534;6.212;2023-03-31T09:29:05;25;25;
76661;PMS5003;65579;45.534;6.212;2023-03-31T09:31:29;28;25;
76661;PMS5003;65579;45.534;6.212;2023-03-31T09:33:56;26;24;
76661;PMS5003;65579;45.534;6.212;2023-03-31T09:36:20;23;22;
76661;PMS5003;65579;45.534;6.212;2023-03-31T09:38:45;22;21;
76661;PMS5003;65579;45.534;6.212;2023-03-31T09:41:11;19;18;
76661;PMS5003;65579;45.534;6.212;2023-03-31T09:43:36;21;19;
76661;PMS5003;65579;45.534;6.212;2023-03-31T09:46:01;21;19;
76661;PMS5003;65579;45.534;6.212;2023-03-31T09:48:28;19;18;
76661;PMS5003;65579;45.534;6.212;2023-03-31T09:50:54;21;21;
76661;PMS5003;65579;45.534;6.212;2023-03-31T09:53:19;27;26;
76661;PMS5003;65579;45.534;6.212;2023-03-31T09:55:44;24;22;
76661;PMS5003;65579;45.534;6.212;2023-03-31T09:58:11;22;21;
76661;PMS5003;65579;45.534;6.212;2023-03-31T10:00:36;31;29;
76661;PMS5003;65579;45.534;6.212;2023-03-31T10:03:01;31;31;
76661;PMS5003;65579;45.534;6.212;2023-03-31T10:05:27;34;32;
76661;PMS5003;65579;45.534;6.212;2023-03-31T10:07:52;30;28;
76661;PMS5003;65579;45.534;6.212;2023-03-31T10:10:21;25;24;
76661;PMS5003;65579;45.534;6.212;2023-03-31T10:12:48;30;29;
76661;PMS5003;65579;45.534;6.212;2023-03-31T10:15:14;25;23;
76661;PMS5003;65579;45.534;6.212;2023-03-31T10:17:34;28;27;
76661;PMS5003;65579;45.534;6.212;2023-03-31T10:20:03;24;22;
76661;PMS5003;65579;45.534;6.212;2023-03-31T10:22:27;23;22;
76661;PMS5003;65579;45.534;6.212;2023-03-31T10:24:50;22;22;
76661;PMS5003;65579;45.534;6.212;2023-03-31T10:27:18;30;30;
76661;PMS5003;65579;45.534;6.212;2023-03-31T10:29:41;25;24;
76661;PMS5003;65579;45.534;6.212;2023-03-31T10:32:08;34;31;
76661;PMS5003;65579;45.534;6.212;2023-03-31T10:34:39;35;34;
76661;PMS5003;65579;45.534;6.212;2023-03-31T10:36:57;30;29;
76661;PMS5003;65579;45.534;6.212;2023-03-31T10:39:22;27;27;
76661;PMS5003;65579;45.534;6.212;2023-03-31T10:41:48;38;38;
76661;PMS5003;65579;45.534;6.212;2023-03-31T10:46:40;40;35;
76661;PMS5003;65579;45.534;6.212;2023-03-31T10:49:08;28;26;
76661;PMS5003;65579;45.534;6.212;2023-03-31T10:51:30;26;23;
76661;PMS5003;65579;45.534;6.212;2023-03-31T10:53:59;25;25;
76661;PMS5003;65579;45.534;6.212;2023-03-31T10:56:24;27;27;
76661;PMS5003;65579;45.534;6.212;2023-03-31T10:58:50;25;25;
76661;PMS5003;65579;45.534;6.212;2023-03-31T11:01:16;21;19;
76661;PMS5003;65579;45.534;6.212;2023-03-31T11:06:07;24;23;
76661;PMS5003;65579;45.534;6.212;2023-03-31T11:08:32;25;25;
76661;PMS5003;65579;45.534;6.212;2023-03-31T11:10:58;30;29;
76661;PMS5003;65579;45.534;6.212;2023-03-31T11:13:20;32;29;
76661;PMS5003;65579;45.534;6.212;2023-03-31T11:15:46;26;26;
76661;PMS5003;65579;45.534;6.212;2023-03-31T11:18:15;29;26;
76661;PMS5003;65579;45.534;6.212;2023-03-31T11:20:37;28;25;
76661;PMS5003;65579;45.534;6.212;2023-03-31T11:23:02;23;23;
76661;PMS5003;65579;45.534;6.212;2023-03-31T11:25:31;23;23;
76661;PMS5003;65579;45.534;6.212;2023-03-31T11:27:56;27;27;
76661;PMS5003;65579;45.534;6.212;2023-03-31T11:30:19;19;19;
76661;PMS5003;65579;45.534;6.212;2023-03-31T11:32:46;33;29;
76661;PMS5003;65579;45.534;6.212;2023-03-31T11:35:12;36;33;
76661;PMS5003;65579;45.534;6.212;2023-03-31T11:37:38;24;23;
76661;PMS5003;65579;45.534;6.212;2023-03-31T11:40:03;26;22;
76661;PMS5003;65579;45.534;6.212;2023-03-31T11:42:25;26;23;
76661;PMS5003;65579;45.534;6.212;2023-03-31T11:44:51;24;24;
76661;PMS5003;65579;45.534;6.212;2023-03-31T11:47:16;29;27;
76661;PMS5003;65579;45.534;6.212;2023-03-31T11:49:42;20;20;
76661;PMS5003;65579;45.534;6.212;2023-03-31T11:52:07;29;25;
76661;PMS5003;65579;45.534;6.212;2023-03-31T11:54:33;28;26;
76661;PMS5003;65579;45.534;6.212;2023-03-31T11:56:57;22;20;
76661;PMS5003;65579;45.534;6.212;2023-03-31T11:59:24;25;24;
76661;PMS5003;65579;45.534;6.212;2023-03-31T12:01:50;22;21;
76661;PMS5003;65579;45.534;6.212;2023-03-31T12:04:18;17;17;
76661;PMS5003;65579;45.534;6.212;2023-03-31T12:06:40;25;22;
76661;PMS5003;65579;45.534;6.212;2023-03-31T12:09:07;22;21;
76661;PMS5003;65579;45.534;6.212;2023-03-31T12:11:33;22;19;
76661;PMS5003;65579;45.534;6.212;2023-03-31T12:13:57;28;27;
76661;PMS5003;65579;45.534;6.212;2023-03-31T12:16:23;24;22;
76661;PMS5003;65579;45.534;6.212;2023-03-31T12:18:53;24;24;
76661;PMS5003;65579;45.534;6.212;2023-03-31T12:21:15;22;21;
76661;PMS5003;65579;45.534;6.212;2023-03-31T12:23:39;20;20;
76661;PMS5003;65579;45.534;6.212;2023-03-31T12:26:04;26;26;
76661;PMS5003;65579;45.534;6.212;2023-03-31T12:28:29;26;24;
76661;PMS5003;65579;45.534;6.212;2023-03-31T12:30:54;25;23;
76661;PMS5003;65579;45.534;6.212;2023-03-31T12:33:21;17;17;
76661;PMS5003;65579;45.534;6.212;2023-03-31T12:35:48;20;18;
76661;PMS5003;65579;45.534;6.212;2023-03-31T12:38:14;20;20;
76661;PMS5003;65579;45.534;6.212;2023-03-31T12:40:39;23;21;
76661;PMS5003;65579;45.534;6.212;2023-03-31T12:43:06;24;24;
76661;PMS5003;65579;45.534;6.212;2023-03-31T12:45:27;30;28;
76661;PMS5003;65579;45.534;6.212;2023-03-31T12:47:54;29;28;
76661;PMS5003;65579;45.534;6.212;2023-03-31T12:50:21;22;22;
76661;PMS5003;65579;45.534;6.212;2023-03-31T12:52:43;20;20;
76661;PMS5003;65579;45.534;6.212;2023-03-31T12:57:33;29;25;
76661;PMS5003;65579;45.534;6.212;2023-03-31T13:02:24;17;17;
76661;PMS5003;65579;45.534;6.212;2023-03-31T13:04:49;18;18;
76661;PMS5003;65579;45.534;6.212;2023-03-31T13:09:42;16;16;
76661;PMS5003;65579;45.534;6.212;2023-03-31T13:12:06;18;18;
76661;PMS5003;65579;45.534;6.212;2023-03-31T13:14:34;20;19;
76661;PMS5003;65579;45.534;6.212;2023-03-31T13:17:11;14;13;
76661;PMS5003;65579;45.534;6.212;2023-03-31T13:24:12;15;15;
76661;PMS5003;65579;45.534;6.212;2023-03-31T13:26:38;14;14;
76661;PMS5003;65579;45.534;6.212;2023-03-31T13:29:08;16;14;
76661;PMS5003;65579;45.534;6.212;2023-03-31T13:31:28;16;16;
76661;PMS5003;65579;45.534;6.212;2023-03-31T13:33:53;18;16;
76661;PMS5003;65579;45.534;6.212;2023-03-31T13:36:23;16;14;
76661;PMS5003;65579;45.534;6.212;2023-03-31T13:38:45;9;9;
76661;PMS5003;65579;45.534;6.212;2023-03-31T13:41:09;13;11;
76661;PMS5003;65579;45.534;6.212;2023-03-31T13:46:04;15;15;
76661;PMS5003;65579;45.534;6.212;2023-03-31T13:48:32;13;11;
76661;PMS5003;65579;45.534;6.212;2023-03-31T13:50:52;12;12;
76661;PMS5003;65579;45.534;6.212;2023-03-31T13:53:18;12;11;
76661;PMS5003;65579;45.534;6.212;2023-03-31T14:00:33;12;11;
76661;PMS5003;65579;45.534;6.212;2023-03-31T14:02:59;12;11;
76661;PMS5003;65579;45.534;6.212;2023-03-31T14:05:24;11;10;
76661;PMS5003;65579;45.534;6.212;2023-03-31T14:07:45;9;9;
76661;PMS5003;65579;45.534;6.212;2023-03-31T14:12:36;13;13;
76661;PMS5003;65579;45.534;6.212;2023-03-31T14:15:01;15;13;
76661;PMS5003;65579;45.534;6.212;2023-03-31T14:17:27;12;12;
76661;PMS5003;65579;45.534;6.212;2023-03-31T14:19:55;15;13;
76661;PMS5003;65579;45.534;6.212;2023-03-31T14:22:18;14;12;
76661;PMS5003;65579;45.534;6.212;2023-03-31T14:24:43;11;11;
76661;PMS5003;65579;45.534;6.212;2023-03-31T14:27:10;9;9;
76661;PMS5003;65579;45.534;6.212;2023-03-31T14:29:34;16;12;
76661;PMS5003;65579;45.534;6.212;2023-03-31T14:32:00;10;8;
76661;PMS5003;65579;45.534;6.212;2023-03-31T14:34:27;9;9;
76661;PMS5003;65579;45.534;6.212;2023-03-31T14:36:50;8;7;
76661;PMS5003;65579;45.534;6.212;2023-03-31T14:39:15;7;7;
76661;PMS5003;65579;45.534;6.212;2023-03-31T14:41:38;6;6;
76661;PMS5003;65579;45.534;6.212;2023-03-31T14:44:04;9;7;
76661;PMS5003;65579;45.534;6.212;2023-03-31T14:46:29;7;7;
76661;PMS5003;65579;45.534;6.212;2023-03-31T14:48:54;7;7;
76661;PMS5003;65579;45.534;6.212;2023-03-31T14:51:23;7;7;
76661;PMS5003;65579;45.534;6.212;2023-03-31T14:53:44;7;7;
76661;PMS5003;65579;45.534;6.212;2023-03-31T14:56:10;8;8;
76661;PMS5003;65579;45.534;6.212;2023-03-31T14:58:35;7;7;
76661;PMS5003;65579;45.534;6.212;2023-03-31T15:01:01;6;6;
76661;PMS5003;65579;45.534;6.212;2023-03-31T15:03:25;7;7;
76661;PMS5003;65579;45.534;6.212;2023-03-31T15:05:51;5;5;
76661;PMS5003;65579;45.534;6.212;2023-03-31T15:08:16;4;4;
76661;PMS5003;65579;45.534;6.212;2023-03-31T15:10:42;4;3;
76661;PMS5003;65579;45.534;6.212;2023-03-31T15:13:07;5;5;
76661;PMS5003;65579;45.534;6.212;2023-03-31T15:15:31;6;6;
76661;PMS5003;65579;45.534;6.212;2023-03-31T15:17:57;6;6;
76661;PMS5003;65579;45.534;6.212;2023-03-31T15:20:25;9;9;
76661;PMS5003;65579;45.534;6.212;2023-03-31T15:22:47;8;8;
76661;PMS5003;65579;45.534;6.212;2023-03-31T15:25:12;10;9;
76661;PMS5003;65579;45.534;6.212;2023-03-31T15:27:38;4;4;
76661;PMS5003;65579;45.534;6.212;2023-03-31T15:30:03;5;5;
76661;PMS5003;65579;45.534;6.212;2023-03-31T15:32:28;7;5;
76661;PMS5003;65579;45.534;6.212;2023-03-31T15:34:53;7;7;
76661;PMS5003;65579;45.534;6.212;2023-03-31T15:37:19;5;5;
76661;PMS5003;65579;45.534;6.212;2023-03-31T15:39:43;6;6;
76661;PMS5003;65579;45.534;6.212;2023-03-31T15:42:08;5;5;
76661;PMS5003;65579;45.534;6.212;2023-03-31T15:44:36;6;5;
76661;PMS5003;65579;45.534;6.212;2023-03-31T15:46:59;4;4;
76661;PMS5003;65579;45.534;6.212;2023-03-31T15:49:24;2;1;
76661;PMS5003;65579;45.534;6.212;2023-03-31T15:51:49;6;5;
76661;PMS5003;65579;45.534;6.212;2023-03-31T15:56:41;4;4;
76661;PMS5003;65579;45.534;6.212;2023-03-31T15:59:05;3;3;
76661;PMS5003;65579;45.534;6.212;2023-03-31T16:01:30;5;3;
76661;PMS5003;65579;45.534;6.212;2023-03-31T16:03:55;4;4;
76661;PMS5003;65579;45.534;6.212;2023-03-31T16:06:22;5;5;
76661;PMS5003;65579;45.534;6.212;2023-03-31T16:08:46;7;5;
76661;PMS5003;65579;45.534;6.212;2023-03-31T16:11:11;6;4;
76661;PMS5003;65579;45.534;6.212;2023-03-31T16:13:36;6;6;
76661;PMS5003;65579;45.534;6.212;2023-03-31T16:16:00;6;6;
76661;PMS5003;65579;45.534;6.212;2023-03-31T16:18:28;9;8;
76661;PMS5003;65579;45.534;6.212;2023-03-31T16:20:52;5;5;
76661;PMS5003;65579;45.534;6.212;2023-03-31T16:23:17;9;6;
76661;PMS5003;65579;45.534;6.212;2023-03-31T16:25:42;5;5;
76661;PMS5003;65579;45.534;6.212;2023-03-31T16:28:07;5;5;
76661;PMS5003;65579;45.534;6.212;2023-03-31T16:30:33;6;5;
76661;PMS5003;65579;45.534;6.212;2023-03-31T16:32:58;5;4;
76661;PMS5003;65579;45.534;6.212;2023-03-31T16:35:23;3;3;
76661;PMS5003;65579;45.534;6.212;2023-03-31T16:37:50;4;4;
76661;PMS5003;65579;45.534;6.212;2023-03-31T16:40:13;5;5;
76661;PMS5003;65579;45.534;6.212;2023-03-31T16:42:39;9;7;
76661;PMS5003;65579;45.534;6.212;2023-03-31T16:45:04;4;4;
76661;PMS5003;65579;45.534;6.212;2023-03-31T16:47:29;9;8;
76661;PMS5003;65579;45.534;6.212;2023-03-31T16:49:57;6;6;
76661;PMS5003;65579;45.534;6.212;2023-03-31T16:52:22;5;5;